Time;durP1;ratioP1;P1;durP2;ratioP2;P2;SDS_P1;SDS_P2;PMS_P1;PMS_P2;Temp;Humidity;BMP_temperature;BMP_pressure;BME280_temperature;BME280_humidity;BME280_pressure;Samples;Min_cycle;Max_cycle;Signal;HPM_P1;HPM_P2
2022/07/26 00:00:50;;;;;;;6.03;1.60;;;;;;;19.82;62.80;101193.69;5020794;28;20049;-66
2022/07/26 00:03:18;;;;;;;7.45;1.45;;;;;;;20.11;62.04;101185.56;5022440;28;20366;-72
2022/07/26 00:05:45;;;;;;;5.63;1.63;;;;;;;20.38;61.13;101194.97;5013961;28;20050;-66
2022/07/26 00:08:12;;;;;;;6.53;1.52;;;;;;;20.53;60.37;101193.28;5020468;28;20061;-65
2022/07/26 00:10:43;;;;;;;5.68;1.67;;;;;;;20.63;59.62;101195.47;5026703;28;20049;-66
2022/07/26 00:13:10;;;;;;;6.63;1.70;;;;;;;20.69;59.42;101191.22;5019662;28;20349;-66
2022/07/26 00:15:37;;;;;;;7.75;1.45;;;;;;;20.54;60.03;101187.31;5034210;28;20058;-66
2022/07/26 00:18:05;;;;;;;5.60;1.67;;;;;;;20.54;60.10;101194.91;5023410;28;20052;-66
2022/07/26 00:20:38;;;;;;;10.10;1.60;;;;;;;20.42;60.85;101198.66;5032338;28;20056;-66
2022/07/26 00:23:07;;;;;;;5.03;1.42;;;;;;;20.33;60.69;101195.25;5033612;28;20050;-72
2022/07/26 00:25:35;;;;;;;5.70;1.48;;;;;;;20.19;61.43;101202.56;5020069;28;20050;-66
2022/07/26 00:28:03;;;;;;;5.55;1.67;;;;;;;20.23;61.40;101201.44;5032426;28;20388;-67
2022/07/26 00:30:31;;;;;;;8.40;2.30;;;;;;;20.44;60.72;101193.50;5061485;28;20045;-67
2022/07/26 00:32:59;;;;;;;9.80;2.10;;;;;;;20.50;60.27;101197.63;5033740;28;20404;-72
2022/07/26 00:35:26;;;;;;;9.85;1.38;;;;;;;19.97;61.62;101196.44;5031159;28;20504;-66
2022/07/26 00:37:53;;;;;;;9.07;1.58;;;;;;;20.19;61.39;101202.56;5021675;28;20096;-72
2022/07/26 00:40:22;;;;;;;6.93;1.63;;;;;;;20.32;60.80;101201.22;5035129;28;20053;-71
2022/07/26 00:42:49;;;;;;;6.82;1.75;;;;;;;20.56;60.25;101195.31;5046103;28;20056;-72
2022/07/26 00:45:17;;;;;;;8.20;1.95;;;;;;;20.35;60.42;101200.47;5028881;28;20056;-67
2022/07/26 00:47:45;;;;;;;6.35;1.30;;;;;;;20.49;60.36;101203.56;5030628;28;20064;-67
2022/07/26 00:50:14;;;;;;;3.70;1.30;;;;;;;20.35;60.44;101200.47;5020006;28;20053;-72
2022/07/26 00:52:43;;;;;;;6.47;1.60;;;;;;;20.03;61.42;101197.75;5031960;28;20065;-72
2022/07/26 00:55:11;;;;;;;7.63;1.48;;;;;;;19.82;62.22;101199.28;5032599;28;20053;-72
2022/07/26 00:57:40;;;;;;;5.32;1.38;;;;;;;19.96;62.13;101194.03;5034756;28;20053;-66
2022/07/26 01:00:11;;;;;;;8.68;1.77;;;;;;;19.78;62.35;101202.00;5031330;28;20532;-66
2022/07/26 01:02:39;;;;;;;6.15;1.42;;;;;;;19.73;62.65;101193.88;5042853;28;20065;-71
2022/07/26 01:05:07;;;;;;;8.77;1.60;;;;;;;20.02;61.67;101198.13;5021676;28;20053;-72
2022/07/26 01:07:38;;;;;;;4.70;1.80;;;;;;;20.07;61.88;101195.03;5046051;28;20805;-72
2022/07/26 01:10:11;;;;;;;8.35;1.77;;;;;;;19.82;62.45;101193.69;5029819;28;20045;-66
2022/07/26 01:12:39;;;;;;;4.30;1.33;;;;;;;19.94;62.13;101182.38;5007665;28;20061;-66
2022/07/26 01:15:07;;;;;;;6.10;1.73;;;;;;;19.98;62.40;101189.66;5033808;28;20065;-66
2022/07/26 01:17:35;;;;;;;6.57;1.55;;;;;;;20.01;62.07;101191.72;5021710;28;20046;-65
2022/07/26 01:20:07;;;;;;;8.07;1.75;;;;;;;19.65;62.78;101194.88;5060492;28;20053;-66
2022/07/26 01:22:34;;;;;;;6.57;1.48;;;;;;;19.63;63.28;101182.47;5027932;28;20053;-65
2022/07/26 01:25:03;;;;;;;5.72;1.55;;;;;;;19.55;63.70;101189.03;5031018;28;20534;-71
2022/07/26 01:27:30;;;;;;;5.30;1.50;;;;;;;19.74;63.70;101186.28;5037626;28;20060;-72
2022/07/26 01:30:00;;;;;;;8.10;1.70;;;;;;;19.92;63.21;101185.53;5032189;28;20053;-71
2022/07/26 01:32:27;;;;;;;5.90;1.45;;;;;;;19.83;62.93;101184.13;5020976;28;20065;-72
2022/07/26 01:34:57;;;;;;;6.03;1.35;;;;;;;20.06;62.14;101183.06;5030262;28;20480;-71
2022/07/26 01:37:25;;;;;;;6.07;1.20;;;;;;;19.96;62.30;101188.44;5031349;28;20060;-66
2022/07/26 01:39:52;;;;;;;8.32;1.80;;;;;;;20.03;62.39;101183.78;5035034;28;20057;-66
2022/07/26 01:42:20;;;;;;;9.32;1.67;;;;;;;19.92;62.08;101179.97;5043868;28;20046;-65
2022/07/26 01:44:47;;;;;;;5.30;1.40;;;;;;;19.95;62.18;101181.19;5029019;28;20052;-71
2022/07/26 01:47:14;;;;;;;4.57;1.40;;;;;;;20.04;62.02;101181.81;5014828;28;20050;-72
2022/07/26 01:49:42;;;;;;;8.95;1.40;;;;;;;20.04;61.76;101181.81;5036082;28;20042;-72
2022/07/26 01:52:09;;;;;;;6.47;1.40;;;;;;;19.83;62.67;101178.53;5035713;28;20076;-66
2022/07/26 01:54:36;;;;;;;4.95;1.55;;;;;;;19.67;63.20;101186.94;5032919;28;20207;-72
2022/07/26 01:57:04;;;;;;;2.85;1.30;;;;;;;19.55;63.79;101181.47;5033743;28;20046;-65
2022/07/26 01:59:31;;;;;;;9.65;1.88;;;;;;;19.57;63.77;101179.13;5033972;28;20104;-71
2022/07/26 02:01:59;;;;;;;7.30;1.30;;;;;;;19.48;64.01;101178.50;5021802;28;20053;-72
2022/07/26 02:07:13;;;;;;;8.63;1.55;;;;;;;19.19;65.50;101181.72;5020745;28;20049;-66
2022/07/26 02:09:40;;;;;;;2.95;1.00;;;;;;;19.29;65.32;101183.97;5028513;28;20049;-66
2022/07/26 02:12:08;;;;;;;7.97;1.65;;;;;;;19.00;66.70;101185.22;5028174;28;20061;-65
2022/07/26 02:14:35;;;;;;;11.45;1.75;;;;;;;19.35;65.56;101179.78;5032199;28;20060;-71
2022/07/26 02:17:03;;;;;;;9.05;1.80;;;;;;;19.38;65.28;101187.44;5032121;28;20041;-72
2022/07/26 02:19:30;;;;;;;8.93;2.00;;;;;;;19.31;65.55;101187.25;5014851;28;20429;-71
2022/07/26 02:21:58;;;;;;;5.30;1.77;;;;;;;19.08;66.12;101189.00;5029268;28;20492;-66
2022/07/26 02:24:27;;;;;;;11.18;2.13;;;;;;;19.14;66.64;101192.34;5032867;28;20057;-66
2022/07/26 02:26:56;;;;;;;6.90;2.03;;;;;;;18.98;67.19;101189.53;5015195;28;20053;-72
2022/07/26 02:29:24;;;;;;;6.68;1.73;;;;;;;19.31;66.28;101189.22;5029339;28;20049;-72
2022/07/26 02:31:53;;;;;;;8.50;1.80;;;;;;;19.19;67.02;101184.53;5020617;28;20053;-66
2022/07/26 02:34:20;;;;;;;9.05;1.80;;;;;;;18.99;67.62;101189.19;5053490;28;20057;-72
2022/07/26 02:36:48;;;;;;;7.82;1.65;;;;;;;19.14;67.28;101182.00;5016289;28;20050;-72
2022/07/26 02:39:16;;;;;;;9.15;1.90;;;;;;;18.90;68.16;101188.53;5048082;28;20085;-71
2022/07/26 02:41:43;;;;;;;6.65;1.80;;;;;;;18.97;68.16;101191.50;5033020;28;20526;-71
2022/07/26 02:44:10;;;;;;;5.95;1.80;;;;;;;18.85;68.67;101193.56;5031211;28;20168;-72
2022/07/26 02:46:38;;;;;;;6.18;1.50;;;;;;;18.82;69.29;101195.09;5006880;28;20042;-67
2022/07/26 02:49:05;;;;;;;7.90;2.05;;;;;;;18.99;68.39;101194.75;5015145;28;20125;-73
2022/07/26 02:51:33;;;;;;;8.55;1.67;;;;;;;18.97;68.38;101197.09;5028971;28;20057;-72
2022/07/26 02:54:01;;;;;;;7.05;1.70;;;;;;;19.01;68.94;101197.19;5032975;28;20053;-71
2022/07/26 02:56:28;;;;;;;9.07;1.75;;;;;;;19.13;67.82;101191.53;5014518;28;20061;-65
2022/07/26 02:58:56;;;;;;;7.85;1.77;;;;;;;19.22;67.64;101194.97;5032279;28;20089;-67
2022/07/26 03:01:23;;;;;;;6.80;1.50;;;;;;;19.11;67.97;101199.44;5038756;28;20057;-72
2022/07/26 03:03:51;;;;;;;6.18;1.73;;;;;;;18.84;68.81;101208.69;5026443;28;20077;-71
2022/07/26 03:06:18;;;;;;;7.95;1.80;;;;;;;18.91;69.14;101200.53;5013950;28;20058;-66
2022/07/26 03:08:47;;;;;;;10.23;1.67;;;;;;;19.06;68.41;101199.72;5024835;28;20050;-73
2022/07/26 03:11:14;;;;;;;9.00;1.77;;;;;;;19.16;67.95;101198.38;5020487;28;20149;-72
2022/07/26 03:13:42;;;;;;;7.22;1.80;;;;;;;19.17;67.85;101194.41;5029895;28;20449;-73
2022/07/26 03:16:09;;;;;;;6.40;1.92;;;;;;;19.15;68.02;101203.16;5004684;28;20054;-66
2022/07/26 03:18:37;;;;;;;10.13;1.90;;;;;;;18.86;68.55;101195.19;5026663;28;20041;-72
2022/07/26 03:21:05;;;;;;;7.85;1.60;;;;;;;18.63;69.88;101208.91;5028035;28;20058;-72
2022/07/26 03:23:33;;;;;;;7.22;1.83;;;;;;;18.73;69.67;101204.78;5026897;28;20049;-72
2022/07/26 03:26:01;;;;;;;6.63;1.90;;;;;;;18.76;69.67;101207.69;5033439;28;20063;-72
2022/07/26 03:28:32;;;;;;;8.07;1.88;;;;;;;18.93;69.59;101203.78;5037805;28;20065;-66
2022/07/26 03:31:00;;;;;;;8.13;1.70;;;;;;;19.09;69.08;101204.56;5029921;28;20051;-66
2022/07/26 03:33:28;;;;;;;10.68;2.15;;;;;;;19.00;69.32;101195.59;5031070;28;20049;-66
2022/07/26 03:35:56;;;;;;;6.35;1.55;;;;;;;18.89;69.55;101200.88;5036934;28;20053;-72
2022/07/26 03:38:23;;;;;;;5.80;1.80;;;;;;;18.82;70.03;101199.88;5030364;28;20049;-71
2022/07/26 03:40:51;;;;;;;7.70;2.03;;;;;;;18.96;69.88;101205.84;5036197;28;20435;-72
2022/07/26 03:43:19;;;;;;;10.32;1.70;;;;;;;19.01;69.52;101205.56;5052893;28;20062;-71
2022/07/26 03:45:50;;;;;;;10.23;2.22;;;;;;;19.18;69.22;101205.22;5011057;28;20049;-66
2022/07/26 03:48:22;;;;;;;8.98;1.80;;;;;;;19.14;69.33;101207.13;5036816;28;20049;-66
2022/07/26 03:50:49;;;;;;;8.80;1.75;;;;;;;19.34;68.99;101210.84;5027555;28;20054;-66
2022/07/26 03:53:16;;;;;;;7.80;1.60;;;;;;;19.31;68.60;101217.16;5024097;28;20401;-72
2022/07/26 03:58:30;;;;;;;9.68;2.03;;;;;;;19.29;68.84;101211.91;5043363;28;20057;-66
2022/07/26 04:00:57;;;;;;;10.57;2.08;;;;;;;19.30;68.85;101215.53;5020986;28;20060;-72
2022/07/26 04:03:24;;;;;;;8.02;2.05;;;;;;;19.04;69.91;101216.84;5031778;28;20061;-71
2022/07/26 04:05:51;;;;;;;11.77;2.08;;;;;;;18.99;70.21;101219.91;5030647;28;20423;-66
2022/07/26 04:08:19;;;;;;;5.03;1.70;;;;;;;18.95;70.86;101216.19;5032429;28;20053;-72
2022/07/26 04:10:49;;;;;;;7.22;1.92;;;;;;;18.86;71.06;101218.31;5033449;28;20048;-66
2022/07/26 04:13:18;;;;;;;11.20;2.20;;;;;;;18.70;72.26;101223.06;5032946;28;20050;-66
2022/07/26 04:15:46;;;;;;;9.25;1.90;;;;;;;18.87;71.71;101224.72;5026405;28;20065;-72
2022/07/26 04:18:13;;;;;;;9.25;2.22;;;;;;;19.08;71.23;101230.91;5041379;28;20049;-73
2022/07/26 04:20:41;;;;;;;11.93;2.15;;;;;;;18.86;71.89;101223.91;5039024;28;20057;-72
2022/07/26 04:23:09;;;;;;;8.57;1.83;;;;;;;18.86;72.10;101220.31;5033210;28;20045;-66
2022/07/26 04:25:39;;;;;;;8.83;2.27;;;;;;;18.78;72.49;101222.09;5019602;28;20500;-72
2022/07/26 04:28:08;;;;;;;8.07;1.65;;;;;;;18.79;72.54;101220.91;5015253;28;20045;-65
2022/07/26 04:30:36;;;;;;;9.70;2.03;;;;;;;19.02;71.85;101221.97;5032629;28;20544;-66
2022/07/26 04:33:04;;;;;;;11.68;2.55;;;;;;;18.83;71.89;101221.00;5035037;28;20057;-66
2022/07/26 04:35:31;;;;;;;7.38;1.90;;;;;;;18.78;72.56;101221.28;5040237;28;20049;-65
2022/07/26 04:37:59;;;;;;;8.63;2.40;;;;;;;19.02;72.17;101224.75;5028986;28;20050;-65
2022/07/26 04:40:27;;;;;;;10.82;2.33;;;;;;;18.98;71.96;101220.25;5033657;28;20068;-66
2022/07/26 04:42:55;;;;;;;14.30;2.30;;;;;;;19.31;70.83;101226.34;5018956;28;20067;-66
2022/07/26 04:45:22;;;;;;;11.98;3.03;;;;;;;19.31;70.61;101231.13;5027395;28;20053;-66
2022/07/26 04:47:50;;;;;;;11.55;2.33;;;;;;;19.26;71.04;101228.56;5049096;28;20743;-66
2022/07/26 04:50:19;;;;;;;10.27;2.03;;;;;;;19.35;70.97;101235.66;5038688;28;20060;-73
2022/07/26 04:52:48;;;;;;;13.85;2.28;;;;;;;19.39;70.46;101233.75;5053307;28;20052;-66
2022/07/26 04:55:16;;;;;;;15.20;2.40;;;;;;;19.40;70.30;101234.56;5055516;28;20424;-65
2022/07/26 04:57:44;;;;;;;12.18;2.42;;;;;;;19.33;70.88;101242.75;5040056;28;20060;-66
2022/07/26 05:00:15;;;;;;;9.85;2.15;;;;;;;19.25;70.98;101247.31;5044611;28;20057;-66
2022/07/26 05:03:06;;;;;;;8.45;1.80;;;;;;;19.41;71.06;101244.56;4999751;28;20080;-73
2022/07/26 05:05:33;;;;;;;9.77;2.22;;;;;;;19.60;70.79;101247.44;5022318;28;20072;-72
2022/07/26 05:08:04;;;;;;;10.70;2.53;;;;;;;19.18;71.60;101243.53;5038303;28;20052;-72
2022/07/26 05:10:34;;;;;;;13.90;2.47;;;;;;;19.23;71.71;101251.66;5040211;28;20056;-65
2022/07/26 05:13:04;;;;;;;17.00;3.13;;;;;;;19.13;72.19;101254.94;5038002;28;20061;-65
2022/07/26 05:15:32;;;;;;;10.57;2.67;;;;;;;19.15;72.57;101253.44;5040219;28;20049;-66
2022/07/26 05:18:04;;;;;;;12.13;2.20;;;;;;;19.08;72.58;101258.81;5039852;28;20401;-66
2022/07/26 05:20:35;;;;;;;12.02;2.53;;;;;;;19.33;71.97;101259.53;5029905;28;20053;-66
2022/07/26 05:23:02;;;;;;;16.83;3.05;;;;;;;18.86;73.05;101260.19;5024989;28;20037;-65
2022/07/26 05:25:30;;;;;;;15.52;3.13;;;;;;;19.07;72.91;101257.22;5033310;28;20053;-65
2022/07/26 05:27:57;;;;;;;5.55;2.03;;;;;;;19.30;72.20;101263.81;5033329;28;20057;-66
2022/07/26 05:30:24;;;;;;;8.57;2.25;;;;;;;19.64;71.92;101265.13;5030567;28;20046;-64
2022/07/26 05:32:52;;;;;;;13.25;2.28;;;;;;;19.78;70.91;101257.09;5031406;28;20413;-63
2022/07/26 05:35:19;;;;;;;8.85;2.33;;;;;;;19.98;70.01;101267.16;5032018;28;20060;-64
2022/07/26 05:37:46;;;;;;;9.48;2.53;;;;;;;19.90;70.02;101271.78;5027946;28;20060;-66
2022/07/26 05:40:14;;;;;;;10.90;2.42;;;;;;;20.20;68.52;101258.13;5033769;28;20060;-62
2022/07/26 05:42:41;;;;;;;8.77;2.20;;;;;;;20.44;68.29;101265.44;5033601;28;20064;-65
2022/07/26 05:45:09;;;;;;;16.20;2.45;;;;;;;20.26;68.06;101261.47;5024953;28;20049;-64
2022/07/26 05:47:37;;;;;;;9.48;2.28;;;;;;;19.60;70.33;101267.81;5033135;28;20045;-70
2022/07/26 05:50:05;;;;;;;11.95;2.30;;;;;;;19.71;70.50;101268.91;5065620;28;20034;-69
2022/07/26 05:52:33;;;;;;;11.55;2.35;;;;;;;19.71;70.40;101268.09;5048057;28;20164;-64
2022/07/26 05:55:01;;;;;;;13.98;2.60;;;;;;;20.06;69.28;101264.19;5034111;28;20049;-68
2022/07/26 05:57:28;;;;;;;10.02;2.65;;;;;;;19.87;69.29;101258.53;5035211;28;20061;-69
2022/07/26 05:59:55;;;;;;;10.95;2.30;;;;;;;19.83;70.15;101271.59;5039366;28;20049;-72
2022/07/26 06:02:23;;;;;;;7.80;2.28;;;;;;;19.87;70.08;101264.13;5040434;28;20044;-68
2022/07/26 06:04:50;;;;;;;10.98;2.55;;;;;;;19.84;69.79;101273.22;5030398;28;20096;-68
2022/07/26 06:07:18;;;;;;;12.57;3.20;;;;;;;19.82;70.20;101283.94;5037406;28;20385;-64
2022/07/26 06:09:45;;;;;;;11.40;1.95;;;;;;;20.17;69.91;101270.06;5047301;28;20518;-66
2022/07/26 06:12:13;;;;;;;7.65;2.42;;;;;;;20.54;67.95;101279.66;5059956;28;20058;-75
2022/07/26 06:14:40;;;;;;;8.57;2.25;;;;;;;20.66;68.05;101278.75;5054585;28;20060;-73
2022/07/26 06:17:08;;;;;;;14.82;2.60;;;;;;;20.91;66.70;101275.25;5046599;28;20053;-74
2022/07/26 06:19:36;;;;;;;10.75;2.17;;;;;;;20.84;66.21;101274.31;5049974;28;20065;-64
2022/07/26 06:22:03;;;;;;;14.15;2.10;;;;;;;20.90;65.99;101282.03;5046401;28;20424;-73
2022/07/26 06:24:31;;;;;;;11.27;2.33;;;;;;;20.96;65.32;101286.16;5038302;28;20056;-65
2022/07/26 06:26:58;;;;;;;20.00;2.35;;;;;;;21.02;65.34;101287.53;5032362;28;20441;-67
2022/07/26 06:29:32;;;;;;;11.77;2.08;;;;;;;21.00;65.06;101289.88;5059312;28;20049;-65
2022/07/26 06:31:59;;;;;;;17.63;3.25;;;;;;;21.00;64.90;101291.88;5032692;28;20053;-67
2022/07/26 06:34:27;;;;;;;26.23;3.20;;;;;;;20.87;65.84;101291.19;5024743;28;20050;-67
2022/07/26 06:36:55;;;;;;;7.30;1.90;;;;;;;21.07;64.58;101286.41;5010088;28;20045;-70
2022/07/26 06:39:22;;;;;;;7.28;2.05;;;;;;;21.02;64.28;101289.50;5039395;28;20543;-69
2022/07/26 06:41:49;;;;;;;9.10;2.78;;;;;;;21.00;64.78;101289.88;5038085;28;20045;-70
2022/07/26 06:44:22;;;;;;;10.02;2.22;;;;;;;21.08;64.35;101291.63;5024315;28;20057;-70
2022/07/26 06:46:49;;;;;;;8.27;1.98;;;;;;;21.16;64.16;101289.78;5038481;28;20054;-70
2022/07/26 06:49:17;;;;;;;12.15;2.30;;;;;;;20.96;64.53;101294.56;5029400;28;20041;-69
2022/07/26 06:51:49;;;;;;;12.13;2.50;;;;;;;21.23;64.19;101298.34;5022448;28;20052;-68
2022/07/26 06:54:16;;;;;;;10.32;2.05;;;;;;;21.15;63.76;101288.97;5030664;28;20411;-69
2022/07/26 06:56:43;;;;;;;8.38;2.17;;;;;;;21.07;64.35;101294.81;5040513;28;20064;-69
2022/07/26 06:59:11;;;;;;;10.48;2.15;;;;;;;20.82;65.24;101294.28;5031001;28;20053;-69
2022/07/26 07:01:38;;;;;;;10.18;2.30;;;;;;;20.98;64.57;101295.03;5055662;28;20657;-68
2022/07/26 07:04:26;;;;;;;13.57;2.22;;;;;;;21.12;63.94;101300.94;5023050;28;20045;-68
2022/07/26 07:06:53;;;;;;;9.32;2.45;;;;;;;21.18;63.66;101305.03;5037800;28;20072;-70
2022/07/26 07:09:23;;;;;;;12.90;2.80;;;;;;;21.12;64.12;101298.13;5027098;28;20053;-69
2022/07/26 07:11:51;;;;;;;14.90;2.55;;;;;;;20.65;65.99;101302.28;5031613;28;20041;-68
2022/07/26 07:14:29;;;;;;;10.05;2.25;;;;;;;20.94;65.25;101307.31;5017649;28;20049;-68
2022/07/26 07:16:56;;;;;;;13.73;2.47;;;;;;;21.09;64.50;101296.09;5037328;28;20049;-68
2022/07/26 07:19:24;;;;;;;11.20;2.60;;;;;;;21.21;63.66;101306.31;5047883;28;20050;-68
2022/07/26 07:21:51;;;;;;;13.25;2.88;;;;;;;21.10;64.49;101310.88;5029895;28;20052;-68
2022/07/26 07:24:19;;;;;;;12.95;2.85;;;;;;;20.99;64.34;101309.88;5041849;28;20049;-62
2022/07/26 07:26:46;;;;;;;16.58;3.00;;;;;;;20.67;65.61;101308.34;5051118;28;20063;-66
2022/07/26 07:29:16;;;;;;;7.80;2.28;;;;;;;20.65;65.93;101313.50;5032916;28;20046;-67
2022/07/26 07:31:44;;;;;;;10.95;2.35;;;;;;;20.41;67.15;101308.97;5041799;28;20064;-67
2022/07/26 07:34:17;;;;;;;12.98;2.58;;;;;;;20.58;66.54;101308.56;5029068;28;20052;-66
2022/07/26 07:36:46;;;;;;;9.52;2.17;;;;;;;20.65;66.20;101305.09;5037227;28;20053;-66
2022/07/26 07:39:14;;;;;;;8.35;2.25;;;;;;;20.85;65.73;101304.72;5036425;28;20042;-66
2022/07/26 07:41:44;;;;;;;7.85;2.70;;;;;;;20.92;64.84;101309.69;5045940;28;20049;-67
2022/07/26 07:44:12;;;;;;;11.02;2.30;;;;;;;20.94;65.15;101310.09;5036901;28;20049;-67
2022/07/26 07:46:39;;;;;;;8.63;2.47;;;;;;;21.01;64.90;101307.47;5039906;28;20053;-68
2022/07/26 07:49:07;;;;;;;8.57;2.42;;;;;;;21.06;64.42;101301.63;5040101;28;20041;-68
2022/07/26 07:51:35;;;;;;;10.20;2.40;;;;;;;21.18;64.38;101310.63;5038130;28;20057;-66
2022/07/26 07:54:03;;;;;;;11.07;2.33;;;;;;;21.31;64.22;101311.28;5030898;28;20057;-69
2022/07/26 07:56:33;;;;;;;9.32;2.13;;;;;;;21.58;63.18;101310.22;5020310;28;20053;-69
2022/07/26 07:59:00;;;;;;;13.88;2.65;;;;;;;21.41;62.23;101318.28;5030676;28;20057;-69
2022/07/26 08:01:28;;;;;;;12.40;2.45;;;;;;;20.57;65.23;101306.13;5028098;28;20041;-69
2022/07/26 08:04:07;;;;;;;12.18;2.63;;;;;;;20.34;66.51;101310.78;5025687;28;20045;-64
2022/07/26 08:06:35;;;;;;;9.55;2.10;;;;;;;20.44;66.30;101316.63;5041342;28;20059;-67
2022/07/26 08:09:03;;;;;;;7.70;2.08;;;;;;;20.52;65.64;101307.22;5048097;28;20170;-68
2022/07/26 08:11:33;;;;;;;12.00;2.50;;;;;;;20.45;66.30;101311.84;5031265;28;20046;-67
2022/07/26 08:14:01;;;;;;;8.73;2.28;;;;;;;20.38;65.88;101311.69;5044255;28;20303;-68
2022/07/26 08:16:28;;;;;;;15.13;1.80;;;;;;;20.51;65.71;101319.59;5037014;28;20041;-68
2022/07/26 08:18:56;;;;;;;8.32;2.13;;;;;;;20.71;64.45;101323.25;5032348;28;20061;-66
2022/07/26 08:21:25;;;;;;;9.95;2.20;;;;;;;20.51;65.35;101318.78;5029952;28;20499;-67
2022/07/26 08:23:56;;;;;;;9.32;2.08;;;;;;;20.77;64.72;101313.34;5033464;28;20057;-67
2022/07/26 08:26:23;;;;;;;8.55;2.13;;;;;;;20.89;64.29;101319.63;5043212;28;20073;-68
2022/07/26 08:28:51;;;;;;;8.20;2.03;;;;;;;20.89;64.00;101319.63;5029942;28;20053;-66
2022/07/26 08:31:27;;;;;;;8.18;2.05;;;;;;;21.24;63.52;101317.59;5049345;28;20077;-66
2022/07/26 08:33:55;;;;;;;8.75;2.10;;;;;;;21.17;62.38;101325.84;5057149;28;20500;-67
2022/07/26 08:36:22;;;;;;;10.60;2.00;;;;;;;21.34;62.60;101321.75;5030823;28;20061;-67
2022/07/26 08:38:50;;;;;;;11.85;2.67;;;;;;;21.25;62.51;101321.19;5034943;28;20056;-66
2022/07/26 08:41:17;;;;;;;6.00;2.05;;;;;;;21.63;61.67;101321.13;5054391;28;20048;-65
2022/07/26 08:43:45;;;;;;;9.57;2.00;;;;;;;21.64;61.04;101331.13;5058776;28;20049;-66
2022/07/26 08:46:23;;;;;;;9.90;2.10;;;;;;;21.57;61.83;101327.38;5036731;28;20057;-66
2022/07/26 08:48:56;;;;;;;11.40;2.63;;;;;;;21.58;60.97;101329.84;5027265;28;20049;-66
2022/07/26 08:51:25;;;;;;;11.88;2.70;;;;;;;21.58;61.58;101341.06;5034998;28;20056;-65
2022/07/26 08:53:55;;;;;;;6.57;1.88;;;;;;;21.04;62.43;101335.56;5054138;28;20539;-66
2022/07/26 08:56:33;;;;;;;9.45;2.08;;;;;;;21.21;62.68;101332.34;5036380;28;20064;-68
2022/07/26 08:59:05;;;;;;;8.73;1.55;;;;;;;21.29;62.46;101333.25;5035406;28;20393;-71
2022/07/26 09:01:33;;;;;;;15.32;2.55;;;;;;;21.00;62.73;101337.50;5029589;28;20061;-69
2022/07/26 09:04:24;;;;;;;12.00;2.88;;;;;;;20.92;63.91;101338.50;5037632;28;20061;-73
2022/07/26 09:07:05;;;;;;;7.38;2.15;;;;;;;21.45;62.26;101344.38;5044542;28;20096;-71
2022/07/26 09:09:37;;;;;;;7.28;2.20;;;;;;;21.71;60.88;101334.06;5043178;28;20057;-70
2022/07/26 09:12:15;;;;;;;9.07;2.05;;;;;;;21.80;61.00;101339.47;5038473;28;20057;-73
2022/07/26 09:14:45;;;;;;;9.93;2.00;;;;;;;21.61;61.60;101350.69;5035460;28;20057;-71
2022/07/26 09:17:19;;;;;;;9.27;2.47;;;;;;;21.30;62.18;101350.91;5033968;28;20660;-71
2022/07/26 09:20:12;;;;;;;10.48;2.20;;;;;;;20.97;63.33;101346.59;5045857;28;20045;-71
2022/07/26 09:22:58;;;;;;;9.25;1.77;;;;;;;21.00;63.11;101348.72;5026547;28;20056;-71
2022/07/26 09:25:27;;;;;;;10.25;1.65;;;;;;;21.10;61.99;101352.91;5015694;28;20053;-65
2022/07/26 09:27:55;;;;;;;10.88;2.35;;;;;;;21.08;62.80;101353.28;5012701;28;20064;-71
2022/07/26 09:30:22;;;;;;;8.95;2.00;;;;;;;21.19;62.17;101350.69;5039101;28;20773;-71
2022/07/26 09:33:00;;;;;;;9.07;2.00;;;;;;;21.22;62.19;101349.94;5044291;28;20041;-69
2022/07/26 09:35:31;;;;;;;14.75;4.20;;;;;;;21.47;61.93;101356.84;5023947;28;20512;-71
2022/07/26 09:38:18;;;;;;;8.35;1.95;;;;;;;21.48;60.91;101355.66;5039289;28;20060;-67
2022/07/26 09:40:45;;;;;;;15.15;2.53;;;;;;;21.47;60.89;101358.84;5043449;28;20054;-72
2022/07/26 09:43:18;;;;;;;17.00;2.38;;;;;;;21.85;62.50;101353.97;5023249;28;20048;-70
2022/07/26 09:46:10;;;;;;;10.85;2.40;;;;;;;21.61;60.46;101362.72;5030887;28;20591;-71
2022/07/26 09:48:38;;;;;;;7.85;1.98;;;;;;;21.97;59.67;101356.59;5029829;28;20053;-71
2022/07/26 09:51:39;;;;;;;8.05;1.98;;;;;;;21.71;58.83;101361.28;5027523;28;20052;-72
2022/07/26 09:54:07;;;;;;;8.35;2.53;;;;;;;21.46;58.21;101362.84;5037880;28;20065;-70
2022/07/26 09:56:42;;;;;;;7.38;3.15;;;;;;;21.56;57.78;101363.03;5067284;28;20488;-71
2022/07/26 09:59:12;;;;;;;10.60;2.65;;;;;;;21.92;55.90;101358.91;5037939;28;20050;-71
2022/07/26 10:01:39;;;;;;;7.05;1.70;;;;;;;21.85;56.00;101370.81;5030268;28;20053;-71
2022/07/26 10:04:07;;;;;;;8.52;2.03;;;;;;;21.39;57.65;101377.53;5032480;28;20049;-72
2022/07/26 10:06:35;;;;;;;8.93;2.17;;;;;;;21.39;58.12;101368.31;5049449;28;20053;-71
2022/07/26 10:09:04;;;;;;;8.45;1.70;;;;;;;21.66;58.05;101365.22;5035319;28;20079;-71
2022/07/26 10:11:56;;;;;;;7.43;1.77;;;;;;;21.95;55.79;101363.78;5044113;28;20041;-71
2022/07/26 10:14:45;;;;;;;5.70;1.83;;;;;;;21.60;56.95;101374.31;5042512;28;20065;-72
2022/07/26 10:17:27;;;;;;;5.13;1.60;;;;;;;21.85;55.79;101370.81;5045284;28;20053;-71
2022/07/26 10:20:06;;;;;;;6.53;1.58;;;;;;;21.57;55.04;101364.66;5033517;28;20303;-72
2022/07/26 10:22:49;;;;;;;9.65;2.47;;;;;;;21.29;56.49;101363.31;5026852;28;20053;-72
2022/07/26 10:25:16;;;;;;;8.90;1.73;;;;;;;21.29;55.18;101372.50;5039845;28;20156;-71
2022/07/26 10:27:45;;;;;;;7.85;2.67;;;;;;;21.44;54.64;101366.00;5045783;28;20057;-70
2022/07/26 10:30:16;;;;;;;7.30;2.35;;;;;;;21.75;53.31;101362.19;5038300;28;20643;-72
2022/07/26 10:32:53;;;;;;;15.35;7.95;;;;;;;21.66;52.24;101370.00;5037198;28;20099;-73
2022/07/26 10:35:42;;;;;;;13.65;8.15;;;;;;;22.12;50.66;101350.03;5037515;28;20049;-71
2022/07/26 10:38:13;;;;;;;11.20;4.60;;;;;;;22.11;49.42;101362.44;5045530;28;20060;-72
2022/07/26 10:41:05;;;;;;;5.25;2.15;;;;;;;22.09;50.04;101364.00;5032576;28;20061;-70
2022/07/26 10:43:33;;;;;;;10.27;3.85;;;;;;;21.97;50.51;101361.38;5025274;28;20413;-72
2022/07/26 10:46:14;;;;;;;8.52;3.10;;;;;;;22.02;50.81;101361.88;5038880;28;20064;-72
2022/07/26 10:49:02;;;;;;;10.10;4.18;;;;;;;22.09;49.36;101362.00;5034507;28;20053;-71
2022/07/26 10:51:38;;;;;;;9.48;4.38;;;;;;;21.66;50.66;101365.22;5038552;28;20049;-72
2022/07/26 10:54:09;;;;;;;7.03;2.10;;;;;;;21.74;50.58;101364.16;5028141;28;20053;-72
2022/07/26 10:56:37;;;;;;;9.88;2.75;;;;;;;21.60;50.48;101358.28;5025778;28;20062;-72
2022/07/26 10:59:11;;;;;;;7.78;2.60;;;;;;;;;;5030750;28;20412;-74
2022/07/26 11:01:41;;;;;;;9.52;4.05;;;;;;;22.48;47.98;101361.81;5047607;28;20077;-74
2022/07/26 11:04:18;;;;;;;4.78;1.75;;;;;;;22.68;45.55;101357.75;5038856;28;20055;-71
2022/07/26 11:06:46;;;;;;;7.47;2.00;;;;;;;22.62;45.09;101362.06;5041232;28;20053;-72
2022/07/26 11:09:14;;;;;;;3.65;1.30;;;;;;;21.95;46.61;101366.59;5036896;28;20047;-71
2022/07/26 11:11:42;;;;;;;5.22;1.52;;;;;;;21.89;47.78;101354.88;5035171;28;20071;-72
2022/07/26 11:14:14;;;;;;;5.85;2.72;;;;;;;22.24;46.87;101349.84;5033915;28;20057;-74
2022/07/26 11:16:48;;;;;;;4.88;1.27;;;;;;;21.12;49.36;101356.97;5029275;28;20053;-73
2022/07/26 11:19:21;;;;;;;5.47;1.33;;;;;;;21.44;48.04;101354.81;5040122;28;20072;-72
2022/07/26 11:21:59;;;;;;;5.13;1.48;;;;;;;22.06;47.55;101345.13;5040438;28;20045;-72
2022/07/26 11:24:27;;;;;;;11.18;1.73;;;;;;;21.74;48.75;101349.34;5063874;28;20045;-72
2022/07/26 11:26:55;;;;;;;6.95;1.58;;;;;;;22.01;48.79;101340.66;5035668;28;20055;-73
2022/07/26 11:29:27;;;;;;;7.55;1.50;;;;;;;22.24;47.64;101347.03;5046440;28;20638;-73
2022/07/26 11:32:18;;;;;;;4.68;1.10;;;;;;;22.13;47.35;101340.44;5034376;28;20053;-72
2022/07/26 11:34:46;;;;;;;6.03;2.70;;;;;;;21.42;48.55;101345.94;5045091;28;20148;-71
2022/07/26 11:37:15;;;;;;;8.05;4.47;;;;;;;21.36;49.59;101346.63;5042819;28;20060;-72
2022/07/26 11:39:43;;;;;;;5.85;2.30;;;;;;;22.01;47.79;101337.84;5044549;28;20040;-72
2022/07/26 11:42:18;;;;;;;9.35;4.15;;;;;;;21.85;48.36;101331.53;5044357;28;20534;-71